createdAt,value
2022-08-22T00:01:43.692Z,87.50
2022-08-22T00:03:06.867Z,86.90
2022-08-22T00:03:15.317Z,87.00
2022-08-22T00:04:16.744Z,87.90
2022-08-22T00:07:02.387Z,88.60
2022-08-22T00:09:29.788Z,88.30
2022-08-22T00:12:01.898Z,87.70
2022-08-22T00:14:38.602Z,88.30
2022-08-22T00:17:13.412Z,88.10
2022-08-22T00:19:47.499Z,88.30
2022-08-22T00:22:20.358Z,88.00
2022-08-22T00:24:58.139Z,88.20
2022-08-22T00:27:33.878Z,88.40
2022-08-22T00:30:05.702Z,88.60
2022-08-22T00:32:43.548Z,88.10
2022-08-22T00:35:29.421Z,88.50
2022-08-22T00:38:05.089Z,88.20
2022-08-22T00:40:53.667Z,87.90
2022-08-22T00:43:53.506Z,89.00
2022-08-22T00:46:46.899Z,88.60
2022-08-22T00:49:25.450Z,88.70
2022-08-22T00:52:16.315Z,88.40
2022-08-22T00:54:43.040Z,88.00
2022-08-22T00:57:09.816Z,88.30
2022-08-22T00:59:46.969Z,88.40
2022-08-22T01:02:16.715Z,89.20
2022-08-22T01:05:02.291Z,89.30
2022-08-22T01:07:37.883Z,89.40
2022-08-22T01:10:23.915Z,89.80
2022-08-22T01:12:56.565Z,89.90
2022-08-22T01:18:15.992Z,89.60
2022-08-22T01:21:01.848Z,90.50
2022-08-22T01:23:48.821Z,90.40
2022-08-22T01:26:21.666Z,90.50
2022-08-22T01:29:10.344Z,90.30
2022-08-22T01:31:49.657Z,90.30
2022-08-22T01:34:45.564Z,90.30
2022-08-22T01:37:31.446Z,90.40
2022-08-22T01:39:58.325Z,90.20
2022-08-22T01:42:43.862Z,90.30
2022-08-22T01:45:16.964Z,90.20
2022-08-22T01:47:43.714Z,90.00
2022-08-22T01:50:33.833Z,90.20
2022-08-22T01:53:03.728Z,90.30
2022-08-22T01:55:33.199Z,90.30
2022-08-22T01:58:01.563Z,90.50
2022-08-22T02:00:50.243Z,90.20
2022-08-22T02:03:27.178Z,90.10
2022-08-22T02:06:00.165Z,90.40
2022-08-22T02:08:31.663Z,90.60
2022-08-22T02:11:01.514Z,90.40
2022-08-22T02:13:47.184Z,90.50
2022-08-22T02:16:19.793Z,90.30
2022-08-22T02:18:54.199Z,90.60
2022-08-22T02:21:25.677Z,90.50
2022-08-22T02:24:01.346Z,90.40
2022-08-22T02:26:37.431Z,90.30
2022-08-22T02:29:12.235Z,90.30
2022-08-22T02:31:42.643Z,90.10
2022-08-22T02:34:24.539Z,90.40
2022-08-22T02:37:03.376Z,90.20
2022-08-22T02:39:39.235Z,90.30
2022-08-22T02:42:15.148Z,90.10
2022-08-22T02:44:52.848Z,89.90
2022-08-22T02:47:27.834Z,90.20
2022-08-22T02:50:03.205Z,90.20
2022-08-22T02:52:35.583Z,90.00
2022-08-22T02:55:02.253Z,90.20
2022-08-22T02:57:44.635Z,90.10
2022-08-22T03:00:31.172Z,90.00
2022-08-22T03:03:03.688Z,90.00
2022-08-22T03:05:30.392Z,90.10
2022-08-22T03:08:09.588Z,90.10
2022-08-22T03:10:41.465Z,90.40
2022-08-22T03:13:24.280Z,90.20
2022-08-22T03:16:05.499Z,90.00
2022-08-22T03:18:41.347Z,90.20
2022-08-22T03:21:09.314Z,90.00
2022-08-22T03:23:44.986Z,90.20
2022-08-22T03:26:11.634Z,90.40
2022-08-22T03:28:59.220Z,90.10
2022-08-22T03:31:28.202Z,90.30
2022-08-22T03:34:13.768Z,90.30
2022-08-22T03:36:44.901Z,90.40
2022-08-22T03:39:24.748Z,90.20
2022-08-22T03:41:57.484Z,90.10
2022-08-22T03:44:24.364Z,89.70
2022-08-22T03:47:09.544Z,90.10
2022-08-22T03:49:45.512Z,89.70
2022-08-22T03:52:24.294Z,89.70
2022-08-22T03:54:51.613Z,89.50
2022-08-22T03:57:21.418Z,89.40
2022-08-22T04:00:13.500Z,89.60
2022-08-22T04:02:58.547Z,89.60
2022-08-22T04:05:25.219Z,90.10
2022-08-22T04:08:14.048Z,90.10
2022-08-22T04:10:41.199Z,90.00
2022-08-22T04:13:14.043Z,90.00
2022-08-22T04:15:55.923Z,89.90
2022-08-22T04:18:47.629Z,90.10
2022-08-22T04:21:41.221Z,90.00
2022-08-22T04:24:21.170Z,89.60
2022-08-22T04:27:06.772Z,89.60
2022-08-22T04:29:42.366Z,89.80
2022-08-22T04:32:15.007Z,90.30
2022-08-22T04:34:46.599Z,90.40
2022-08-22T04:37:25.238Z,90.20
2022-08-22T04:40:07.373Z,90.30
2022-08-22T04:43:00.763Z,90.00
2022-08-22T04:45:56.715Z,90.20
2022-08-22T04:48:33.662Z,90.10
2022-08-22T04:51:26.696Z,89.90
2022-08-22T04:54:12.877Z,90.00
2022-08-22T04:56:52.024Z,90.60
2022-08-22T04:59:19.294Z,90.80
2022-08-22T05:01:57.080Z,91.20
2022-08-22T05:04:27.003Z,91.40
2022-08-22T05:06:56.797Z,91.50
2022-08-22T05:09:31.335Z,91.50
2022-08-22T05:12:03.250Z,91.40
2022-08-22T05:14:40.401Z,91.70
2022-08-22T05:17:09.124Z,91.80
2022-08-22T05:19:38.385Z,91.80
2022-08-22T05:22:12.830Z,91.70
2022-08-22T05:24:42.356Z,91.30
2022-08-22T05:27:21.393Z,91.00
2022-08-22T05:29:50.511Z,91.10
2022-08-22T05:32:34.458Z,91.20
2022-08-22T05:35:02.080Z,91.10
2022-08-22T05:37:58.760Z,91.20
2022-08-22T05:40:27.036Z,91.10
2022-08-22T05:42:54.812Z,91.10
2022-08-22T05:45:21.917Z,91.00
2022-08-22T05:47:51.588Z,91.30
2022-08-22T05:50:34.727Z,91.50
2022-08-22T05:53:01.575Z,91.80
2022-08-22T05:55:36.630Z,91.90
2022-08-22T05:58:03.302Z,91.80
2022-08-22T06:00:32.893Z,91.80
2022-08-22T06:03:15.031Z,91.30
2022-08-22T06:05:43.259Z,90.70
2022-08-22T06:08:31.110Z,89.90
2022-08-22T06:11:01.445Z,88.60
2022-08-22T06:13:40.145Z,87.70
2022-08-22T06:16:11.674Z,87.00
2022-08-22T06:18:40.228Z,86.40
2022-08-22T06:21:09.764Z,86.40
2022-08-22T06:23:38.740Z,85.70
2022-08-22T06:26:05.686Z,84.40
2022-08-22T06:28:55.360Z,84.00
2022-08-22T06:31:25.223Z,83.30
2022-08-22T06:33:57.350Z,82.40
2022-08-22T06:36:32.051Z,81.90
2022-08-22T06:39:02.307Z,81.30
2022-08-22T06:41:31.214Z,80.90
2022-08-22T06:43:58.737Z,79.70
2022-08-22T06:46:27.909Z,79.20
2022-08-22T06:48:55.594Z,79.40
2022-08-22T06:51:25.054Z,79.10
2022-08-22T06:53:54.535Z,78.20
2022-08-22T06:56:24.401Z,78.10
2022-08-22T06:58:54.524Z,78.00
2022-08-22T07:01:23.816Z,77.00
2022-08-22T07:03:51.911Z,77.60
2022-08-22T07:06:20.963Z,78.00
2022-08-22T07:08:52.488Z,77.50
2022-08-22T07:11:30.028Z,77.00
2022-08-22T07:14:00.174Z,76.20
2022-08-22T07:16:32.088Z,74.80
2022-08-22T07:18:58.917Z,74.40
2022-08-22T07:21:28.182Z,73.30
2022-08-22T07:23:55.607Z,71.50
2022-08-22T07:26:41.427Z,70.60
2022-08-22T07:29:11.553Z,69.40
2022-08-22T07:31:51.013Z,69.70
2022-08-22T07:34:38.108Z,69.20
2022-08-22T07:37:09.652Z,67.20
2022-08-22T07:39:58.222Z,67.80
2022-08-22T07:42:32.467Z,68.20
2022-08-22T07:45:17.558Z,65.40
2022-08-22T07:48:03.141Z,65.00
2022-08-22T07:50:31.454Z,65.20
2022-08-22T07:53:04.130Z,64.60
2022-08-22T07:55:31.025Z,64.90
2022-08-22T07:58:03.864Z,62.50
2022-08-22T08:00:31.436Z,61.10
2022-08-22T08:03:02.615Z,61.90
2022-08-22T08:05:33.225Z,59.90
2022-08-22T08:08:01.163Z,58.60
2022-08-22T08:10:33.135Z,57.70
2022-08-22T08:13:03.600Z,59.50
2022-08-22T08:15:32.131Z,60.20
2022-08-22T08:18:01.971Z,59.30
2022-08-22T08:20:30.175Z,57.20
2022-08-22T08:22:57.624Z,56.10
2022-08-22T08:25:28.244Z,56.50
2022-08-22T08:28:15.721Z,55.70
2022-08-22T08:30:54.671Z,55.40
2022-08-22T08:33:25.692Z,55.00
2022-08-22T08:36:27.311Z,54.50
2022-08-22T08:38:53.978Z,52.80
2022-08-22T08:41:22.639Z,51.60
2022-08-22T08:43:52.274Z,50.20
2022-08-22T08:46:34.812Z,51.70
2022-08-22T08:49:30.818Z,52.20
2022-08-22T08:52:24.971Z,51.80
2022-08-22T08:54:57.949Z,53.80
2022-08-22T08:57:40.155Z,53.30
2022-08-22T09:00:14.586Z,48.90
2022-08-22T09:03:01.041Z,50.00
2022-08-22T09:05:52.479Z,49.20
2022-08-22T09:08:22.168Z,50.40
2022-08-22T09:10:48.850Z,50.00
2022-08-22T09:13:34.543Z,49.60
2022-08-22T09:16:25.935Z,50.90
2022-08-22T09:18:59.288Z,49.60
2022-08-22T09:21:44.650Z,49.90
2022-08-22T09:24:19.435Z,44.70
2022-08-22T09:26:48.337Z,49.30
2022-08-22T09:29:34.334Z,48.80
2022-08-22T09:32:24.519Z,48.50
2022-08-22T09:35:01.863Z,47.80
2022-08-22T09:37:36.719Z,46.90
2022-08-22T09:40:05.746Z,46.80
2022-08-22T09:42:45.047Z,46.40
2022-08-22T09:45:32.771Z,45.30
2022-08-22T09:48:07.198Z,44.90
2022-08-22T09:51:01.594Z,45.00
2022-08-22T09:53:53.881Z,44.80
2022-08-22T09:56:26.216Z,44.80
2022-08-22T09:58:58.781Z,47.10
2022-08-22T10:01:45.343Z,47.10
2022-08-22T10:04:14.803Z,45.90
2022-08-22T10:06:46.398Z,43.00
2022-08-22T10:09:31.207Z,42.50
2022-08-22T10:12:25.100Z,42.40
2022-08-22T10:15:03.636Z,41.80
2022-08-22T10:17:41.078Z,43.90
2022-08-22T10:20:09.098Z,44.00
2022-08-22T10:22:36.526Z,43.20
2022-08-22T10:25:28.558Z,43.20
2022-08-22T10:27:55.503Z,43.50
2022-08-22T10:30:26.800Z,42.30
2022-08-22T10:33:04.061Z,42.20
2022-08-22T10:35:37.592Z,44.10
2022-08-22T10:38:16.532Z,43.40
2022-08-22T10:40:52.039Z,43.20
2022-08-22T10:43:28.748Z,41.40
2022-08-22T10:46:02.499Z,42.80
2022-08-22T10:48:51.907Z,44.60
2022-08-22T10:51:22.376Z,43.30
2022-08-22T10:53:53.039Z,42.60
2022-08-22T10:56:22.687Z,43.30
2022-08-22T10:59:03.994Z,42.80
2022-08-22T11:01:37.941Z,43.00
2022-08-22T11:04:20.596Z,42.10
2022-08-22T11:07:16.890Z,44.10
2022-08-22T11:09:47.629Z,43.10
2022-08-22T11:12:23.409Z,43.20
2022-08-22T11:14:53.490Z,43.40
2022-08-22T11:17:32.302Z,42.80
2022-08-22T11:20:13.559Z,43.90
2022-08-22T11:22:49.868Z,41.50
2022-08-22T11:25:41.886Z,43.30
2022-08-22T11:28:17.614Z,41.70
2022-08-22T11:30:47.310Z,42.40
2022-08-22T11:33:46.401Z,42.50
2022-08-22T11:36:17.539Z,43.00
2022-08-22T11:38:56.103Z,40.50
2022-08-22T11:41:25.500Z,40.90
2022-08-22T11:43:55.411Z,40.10
2022-08-22T11:46:25.648Z,40.10
2022-08-22T11:48:58.270Z,42.70
2022-08-22T11:51:44.052Z,41.20
2022-08-22T11:54:15.826Z,43.00
2022-08-22T11:56:43.468Z,41.80
2022-08-22T11:59:15.032Z,40.40
2022-08-22T12:01:47.357Z,39.60
2022-08-22T12:04:33.953Z,38.70
2022-08-22T12:07:01.161Z,39.40
2022-08-22T12:09:43.193Z,39.90
2022-08-22T12:12:20.145Z,41.00
2022-08-22T12:15:08.907Z,39.50
2022-08-22T12:17:55.729Z,40.70
2022-08-22T12:20:45.344Z,41.40
2022-08-22T12:23:15.326Z,41.00
2022-08-22T12:26:01.082Z,37.70
2022-08-22T12:28:29.479Z,37.70
2022-08-22T12:31:15.069Z,37.30
2022-08-22T12:33:57.520Z,36.20
2022-08-22T12:36:24.273Z,38.90
2022-08-22T12:39:07.665Z,36.20
2022-08-22T12:41:46.789Z,36.50
2022-08-22T12:44:18.355Z,36.90
2022-08-22T12:47:02.886Z,37.40
2022-08-22T12:49:52.433Z,36.60
2022-08-22T12:52:26.379Z,35.30
2022-08-22T12:55:02.136Z,38.90
2022-08-22T12:57:50.559Z,38.70
2022-08-22T13:00:45.234Z,36.80
2022-08-22T13:03:23.315Z,37.10
2022-08-22T13:05:52.378Z,36.50
2022-08-22T13:08:33.600Z,36.20
2022-08-22T13:11:15.026Z,36.40
2022-08-22T13:13:56.491Z,37.00
2022-08-22T13:16:25.086Z,36.70
2022-08-22T13:18:58.968Z,37.80
2022-08-22T13:21:31.567Z,38.00
2022-08-22T13:24:10.975Z,36.70
2022-08-22T13:26:46.240Z,37.20
2022-08-22T13:29:39.495Z,36.30
2022-08-22T13:32:10.955Z,36.40
2022-08-22T13:34:43.662Z,36.70
2022-08-22T13:37:13.234Z,37.50
2022-08-22T13:39:43.906Z,39.20
2022-08-22T13:42:29.828Z,37.60
2022-08-22T13:44:58.199Z,38.90
2022-08-22T13:47:27.742Z,40.10
2022-08-22T13:50:09.840Z,37.50
2022-08-22T13:52:37.880Z,38.20
2022-08-22T13:55:12.257Z,37.10
2022-08-22T13:57:44.956Z,38.50
2022-08-22T14:00:28.497Z,39.90
2022-08-22T14:02:56.824Z,39.30
2022-08-22T14:05:33.548Z,38.00
2022-08-22T14:08:01.544Z,37.80
2022-08-22T14:10:30.466Z,39.60
2022-08-22T14:12:57.650Z,37.10
2022-08-22T14:15:44.799Z,37.50
2022-08-22T14:18:18.541Z,39.30
2022-08-22T14:20:46.681Z,39.00
2022-08-22T14:23:29.197Z,38.10
2022-08-22T14:25:57.282Z,38.90
2022-08-22T14:28:27.711Z,41.40
2022-08-22T14:31:01.025Z,37.60
2022-08-22T14:33:49.602Z,38.50
2022-08-22T14:36:19.620Z,38.40
2022-08-22T14:39:00.043Z,38.90
2022-08-22T14:41:52.564Z,39.40
2022-08-22T14:44:29.253Z,39.90
2022-08-22T14:47:04.185Z,39.20
2022-08-22T14:49:47.196Z,39.30
2022-08-22T14:52:29.474Z,39.30
2022-08-22T14:55:08.663Z,39.50
2022-08-22T14:57:37.606Z,40.50
2022-08-22T15:00:14.364Z,40.40
2022-08-22T15:02:41.314Z,40.30
2022-08-22T15:05:16.275Z,40.40
2022-08-22T15:07:43.085Z,39.70
2022-08-22T15:10:25.572Z,40.10
2022-08-22T15:12:54.118Z,39.50
2022-08-22T15:15:31.011Z,40.50
2022-08-22T15:17:58.575Z,39.90
2022-08-22T15:20:36.197Z,40.00
2022-08-22T15:23:10.201Z,39.70
2022-08-22T15:25:42.155Z,38.80
2022-08-22T15:28:20.221Z,37.30
2022-08-22T15:31:07.538Z,36.10
2022-08-22T15:33:40.122Z,36.60
2022-08-22T15:36:22.310Z,37.00
2022-08-22T15:39:16.740Z,37.70
2022-08-22T15:41:46.242Z,37.20
2022-08-22T15:44:32.684Z,37.20
2022-08-22T15:47:24.336Z,37.80
2022-08-22T15:49:58.268Z,40.10
2022-08-22T15:52:28.626Z,38.70
2022-08-22T15:54:57.003Z,39.10
2022-08-22T15:57:29.402Z,39.20
2022-08-22T15:59:57.922Z,37.40
2022-08-22T16:02:42.920Z,36.60
2022-08-22T16:05:10.557Z,37.10
2022-08-22T16:07:43.299Z,37.40
2022-08-22T16:10:29.802Z,39.70
2022-08-22T16:13:11.794Z,40.10
2022-08-22T16:15:56.312Z,40.90
2022-08-22T16:18:37.483Z,42.00
2022-08-22T16:21:08.213Z,42.70
2022-08-22T16:23:50.178Z,42.40
2022-08-22T16:26:18.441Z,43.50
2022-08-22T16:28:58.237Z,43.70
2022-08-22T16:31:27.676Z,43.40
2022-08-22T16:33:59.354Z,43.20
2022-08-22T16:36:44.841Z,42.40
2022-08-22T16:39:30.379Z,41.80
2022-08-22T16:42:12.689Z,41.90
2022-08-22T16:44:42.865Z,42.40
2022-08-22T16:47:12.040Z,42.00
2022-08-22T16:49:52.611Z,41.40
2022-08-22T16:52:25.452Z,41.40
2022-08-22T16:54:55.717Z,40.40
2022-08-22T16:57:25.453Z,40.80
2022-08-22T16:59:52.555Z,41.10
2022-08-22T17:02:19.350Z,40.80
2022-08-22T17:05:06.088Z,41.20
2022-08-22T17:07:51.720Z,41.10
2022-08-22T17:10:27.785Z,40.60
2022-08-22T17:13:06.779Z,39.10
2022-08-22T17:15:52.260Z,39.80
2022-08-22T17:18:25.063Z,38.90
2022-08-22T17:21:00.815Z,38.20
2022-08-22T17:23:46.198Z,37.50
2022-08-22T17:26:31.376Z,38.30
2022-08-22T17:29:13.535Z,37.50
2022-08-22T17:31:59.122Z,38.60
2022-08-22T17:34:37.819Z,39.20
2022-08-22T17:37:07.717Z,39.80
2022-08-22T17:39:47.240Z,40.20
2022-08-22T17:42:19.015Z,40.40
2022-08-22T17:45:02.618Z,41.50
2022-08-22T17:47:58.917Z,42.20
2022-08-22T17:50:31.168Z,42.60
2022-08-22T17:53:03.154Z,43.60
2022-08-22T17:55:39.802Z,44.10
2022-08-22T17:58:13.560Z,44.20
2022-08-22T18:01:06.639Z,45.10
2022-08-22T18:03:35.461Z,45.90
2022-08-22T18:06:06.372Z,45.80
2022-08-22T18:09:13.441Z,46.20
2022-08-22T18:11:40.123Z,47.00
2022-08-22T18:14:12.553Z,48.30
2022-08-22T18:16:44.364Z,49.90
2022-08-22T18:19:23.484Z,48.30
2022-08-22T18:21:54.543Z,48.70
2022-08-22T18:24:33.268Z,49.00
2022-08-22T18:27:04.081Z,50.20
2022-08-22T18:29:42.831Z,49.30
2022-08-22T18:32:11.077Z,50.10
2022-08-22T18:35:02.528Z,50.00
2022-08-22T18:37:32.982Z,50.40
2022-08-22T18:40:20.837Z,51.50
2022-08-22T18:42:52.750Z,51.80
2022-08-22T18:45:44.105Z,51.60
2022-08-22T18:48:30.150Z,51.90
2022-08-22T18:51:38.675Z,52.90
2022-08-22T18:54:05.635Z,54.00
2022-08-22T18:56:47.934Z,53.80
2022-08-22T18:59:17.944Z,53.90
2022-08-22T19:01:56.919Z,54.30
2022-08-22T19:04:39.905Z,54.40
2022-08-22T19:07:18.499Z,56.10
2022-08-22T19:09:48.076Z,56.30
2022-08-22T19:12:23.016Z,56.40
2022-08-22T19:15:08.290Z,56.60
2022-08-22T19:17:59.185Z,56.80
2022-08-22T19:20:48.277Z,57.20
2022-08-22T19:23:34.175Z,57.20
2022-08-22T19:26:24.543Z,58.80
2022-08-22T19:28:55.124Z,58.20
2022-08-22T19:31:41.755Z,58.80
2022-08-22T19:34:30.873Z,59.00
2022-08-22T19:37:32.947Z,59.40
2022-08-22T19:40:02.363Z,61.60
2022-08-22T19:42:35.185Z,62.10
2022-08-22T19:45:17.691Z,62.60
2022-08-22T19:47:52.646Z,61.70
2022-08-22T19:50:21.326Z,62.30
2022-08-22T19:53:00.342Z,64.00
2022-08-22T19:55:39.618Z,63.20
2022-08-22T19:58:32.621Z,63.90
2022-08-22T20:01:22.588Z,65.10
2022-08-22T20:04:22.106Z,64.50
2022-08-22T20:07:15.428Z,64.40
2022-08-22T20:09:48.234Z,65.50
2022-08-22T20:12:31.284Z,66.30
2022-08-22T20:15:10.240Z,65.20
2022-08-22T20:17:38.951Z,65.90
2022-08-22T20:20:35.762Z,67.30
2022-08-22T20:23:05.887Z,66.90
2022-08-22T20:25:43.575Z,67.40
2022-08-22T20:28:33.251Z,67.90
2022-08-22T20:31:02.273Z,66.70
2022-08-22T20:33:32.498Z,66.80
2022-08-22T20:36:01.636Z,66.80
2022-08-22T20:38:34.865Z,67.80
2022-08-22T20:41:13.436Z,68.50
2022-08-22T20:43:53.049Z,69.40
2022-08-22T20:46:38.837Z,69.20
2022-08-22T20:49:21.945Z,69.90
2022-08-22T20:51:52.843Z,71.50
2022-08-22T20:54:21.331Z,72.20
2022-08-22T20:56:53.539Z,72.70
2022-08-22T20:59:29.879Z,73.60
2022-08-22T21:02:02.971Z,73.80
2022-08-22T21:04:42.052Z,74.60
2022-08-22T21:07:11.069Z,75.00
2022-08-22T21:09:56.663Z,74.80
2022-08-22T21:12:24.360Z,73.50
2022-08-22T21:14:51.103Z,73.20
2022-08-22T21:17:28.341Z,72.00
2022-08-22T21:19:57.884Z,72.70
2022-08-22T21:22:27.285Z,74.70
2022-08-22T21:24:56.246Z,76.20
2022-08-22T21:27:31.164Z,76.30
2022-08-22T21:29:59.357Z,77.20
2022-08-22T21:32:26.173Z,76.30
2022-08-22T21:34:53.646Z,76.00
2022-08-22T21:37:27.182Z,75.90
2022-08-22T21:40:17.164Z,76.30
2022-08-22T21:42:57.473Z,76.30
2022-08-22T21:45:29.214Z,75.60
2022-08-22T21:47:56.446Z,75.60
2022-08-22T21:50:23.506Z,74.90
2022-08-22T21:52:56.104Z,76.00
2022-08-22T21:55:23.667Z,76.50
2022-08-22T21:58:04.938Z,75.60
2022-08-22T22:00:48.561Z,75.90
2022-08-22T22:03:17.584Z,76.50
2022-08-22T22:05:44.418Z,77.00
2022-08-22T22:08:11.714Z,76.30
2022-08-22T22:10:39.320Z,75.60
2022-08-22T22:13:06.449Z,74.50
2022-08-22T22:15:36.923Z,75.20
2022-08-22T22:18:04.498Z,76.40
2022-08-22T22:20:31.880Z,76.40
2022-08-22T22:22:58.846Z,76.20
2022-08-22T22:25:40.786Z,76.90
2022-08-22T22:28:16.927Z,77.30
2022-08-22T22:30:45.393Z,76.50
2022-08-22T22:33:13.951Z,77.30
2022-08-22T22:35:41.032Z,77.50
2022-08-22T22:38:08.084Z,77.70
2022-08-22T22:40:35.347Z,77.60
2022-08-22T22:43:02.486Z,77.60
2022-08-22T22:45:29.703Z,77.80
2022-08-22T22:47:58.112Z,78.70
2022-08-22T22:50:25.236Z,79.20
2022-08-22T22:52:54.018Z,78.10
2022-08-22T22:55:24.764Z,77.30
2022-08-22T22:57:58.962Z,77.90
2022-08-22T23:00:30.865Z,78.60
2022-08-22T23:03:02.021Z,78.60
2022-08-22T23:05:32.791Z,77.90
2022-08-22T23:07:59.924Z,79.10
2022-08-22T23:10:27.388Z,79.10
2022-08-22T23:12:54.246Z,78.70
2022-08-22T23:15:23.423Z,78.20
2022-08-22T23:17:52.636Z,79.00
2022-08-22T23:20:19.658Z,79.10
2022-08-22T23:22:46.884Z,79.20
2022-08-22T23:25:13.997Z,79.30
2022-08-22T23:27:41.054Z,79.20
2022-08-22T23:30:10.912Z,79.10
2022-08-22T23:32:37.853Z,80.10
2022-08-22T23:35:04.864Z,79.10
2022-08-22T23:37:31.639Z,79.60
2022-08-22T23:39:58.473Z,79.10
2022-08-22T23:42:25.381Z,78.90
2022-08-22T23:44:52.125Z,80.50
2022-08-22T23:47:18.904Z,80.90
2022-08-22T23:49:45.746Z,82.10
2022-08-22T23:52:12.757Z,81.80
2022-08-22T23:54:39.569Z,82.20
2022-08-22T23:57:12.045Z,82.30
2022-08-22T23:59:46.098Z,81.80
